createdAt,value
2022-11-05T00:00:20.683Z,95513.00
2022-11-05T00:03:06.482Z,95509.75
2022-11-05T00:05:52.227Z,95508.19
2022-11-05T00:08:37.722Z,95497.44
2022-11-05T00:11:04.842Z,95486.09
2022-11-05T00:13:50.235Z,95499.34
2022-11-05T00:16:36.101Z,95504.81
2022-11-05T00:19:10.251Z,95509.25
2022-11-05T00:21:57.624Z,95500.19
2022-11-05T00:24:43.417Z,95507.75
2022-11-05T00:27:10.869Z,95508.22
2022-11-05T00:29:37.842Z,95509.38
2022-11-05T00:32:05.172Z,95513.44
2022-11-05T00:34:32.290Z,95508.19
2022-11-05T00:36:59.280Z,95524.16
2022-11-05T00:39:26.245Z,95542.00
2022-11-05T00:42:11.839Z,95546.19
2022-11-05T00:44:57.312Z,95540.94
2022-11-05T00:47:42.643Z,95568.53
2022-11-05T00:50:11.040Z,95572.72
2022-11-05T00:52:57.445Z,95559.19
2022-11-05T00:55:35.823Z,95546.66
2022-11-05T00:58:04.083Z,95519.06
2022-11-05T01:00:31.755Z,95502.94
2022-11-05T01:03:07.202Z,95502.66
2022-11-05T01:05:38.082Z,95508.38
2022-11-05T01:08:05.223Z,95525.91
2022-11-05T01:10:32.180Z,95542.06
2022-11-05T01:12:59.498Z,95552.81
2022-11-05T01:15:26.691Z,95565.06
2022-11-05T01:17:53.803Z,95569.38
2022-11-05T01:20:20.766Z,95571.44
2022-11-05T01:22:48.051Z,95580.69
2022-11-05T01:25:14.983Z,95580.94
2022-11-05T01:27:41.943Z,95579.19
2022-11-05T01:30:09.765Z,95583.66
2022-11-05T01:32:37.522Z,95586.31
2022-11-05T01:35:06.414Z,95570.00
2022-11-05T01:37:34.943Z,95574.69
2022-11-05T01:40:02.095Z,95567.66
2022-11-05T01:42:32.445Z,95564.03
2022-11-05T01:45:10.143Z,95567.28
2022-11-05T01:47:46.103Z,95560.41
2022-11-05T01:50:37.514Z,95548.13
2022-11-05T01:53:17.945Z,95554.81
2022-11-05T01:55:55.930Z,95556.25
2022-11-05T01:58:26.622Z,95558.22
2022-11-05T02:00:54.825Z,95561.03
2022-11-05T02:03:21.802Z,95565.16
2022-11-05T02:05:51.065Z,95559.09
2022-11-05T02:08:39.143Z,95562.22
2022-11-05T02:11:06.189Z,95559.53
2022-11-05T02:13:33.283Z,95557.44
2022-11-05T02:16:15.106Z,95562.84
2022-11-05T02:18:59.663Z,95558.66
2022-11-05T02:21:32.485Z,95555.13
2022-11-05T02:24:16.202Z,95558.69
2022-11-05T02:27:05.323Z,95556.69
2022-11-05T02:29:47.567Z,95562.25
2022-11-05T02:32:32.643Z,95566.94
2022-11-05T02:35:40.822Z,95568.53
2022-11-05T02:38:13.423Z,95570.22
2022-11-05T02:40:54.765Z,95570.34
2022-11-05T02:43:43.303Z,95571.69
2022-11-05T02:46:31.883Z,95572.25
2022-11-05T02:49:13.803Z,95573.84
2022-11-05T02:52:01.053Z,95568.63
2022-11-05T02:54:44.624Z,95571.75
2022-11-05T02:57:11.703Z,95588.31
2022-11-05T02:59:38.732Z,95585.59
2022-11-05T03:02:06.648Z,95588.44
2022-11-05T03:04:33.932Z,95582.47
2022-11-05T03:07:01.022Z,95580.38
2022-11-05T03:09:49.563Z,95594.72
2022-11-05T03:12:16.602Z,95586.28
2022-11-05T03:14:58.727Z,95578.75
2022-11-05T03:17:28.491Z,95563.94
2022-11-05T03:20:08.823Z,95560.00
2022-11-05T03:22:43.103Z,95567.75
2022-11-05T03:25:15.243Z,95565.06
2022-11-05T03:27:47.203Z,95562.28
2022-11-05T03:30:16.402Z,95559.13
2022-11-05T03:32:48.002Z,95558.09
2022-11-05T03:35:21.101Z,95554.47
2022-11-05T03:37:51.305Z,95562.53
2022-11-05T03:40:21.602Z,95567.44
2022-11-05T03:42:52.391Z,95564.78
2022-11-05T03:45:25.683Z,95570.53
2022-11-05T03:48:08.358Z,95570.28
2022-11-05T03:50:42.787Z,95566.09
2022-11-05T03:53:17.282Z,95566.69
2022-11-05T03:56:05.724Z,95565.72
2022-11-05T03:58:33.406Z,95561.47
2022-11-05T04:01:03.030Z,95578.94
2022-11-05T04:03:36.525Z,95583.91
2022-11-05T04:06:24.147Z,95587.31
2022-11-05T04:09:10.343Z,95590.31
2022-11-05T04:11:55.742Z,95604.31
2022-11-05T04:14:22.809Z,95607.78
2022-11-05T04:17:09.754Z,95619.34
2022-11-05T04:19:57.350Z,95630.88
2022-11-05T04:22:45.502Z,95626.50
2022-11-05T04:25:14.069Z,95630.94
2022-11-05T04:27:41.223Z,95630.94
2022-11-05T04:30:18.693Z,95639.31
2022-11-05T04:33:04.383Z,95639.09
2022-11-05T04:35:36.025Z,95636.47
2022-11-05T04:38:06.105Z,95635.53
2022-11-05T04:40:33.583Z,95633.72
2022-11-05T04:43:01.322Z,95635.75
2022-11-05T04:45:33.204Z,95647.22
2022-11-05T04:48:01.290Z,95645.41
2022-11-05T04:50:29.035Z,95664.59
2022-11-05T04:52:56.208Z,95667.84
2022-11-05T04:55:23.464Z,95676.94
2022-11-05T04:57:52.102Z,95669.59
2022-11-05T05:00:20.603Z,95663.91
2022-11-05T05:02:48.323Z,95685.72
2022-11-05T05:05:15.563Z,95684.22
2022-11-05T05:07:43.042Z,95693.84
2022-11-05T05:10:11.904Z,95696.63
2022-11-05T05:12:39.004Z,95697.97
2022-11-05T05:15:06.901Z,95706.25
2022-11-05T05:17:34.324Z,95705.47
2022-11-05T05:20:19.898Z,95709.00
2022-11-05T05:22:54.742Z,95698.75
2022-11-05T05:25:22.702Z,95690.00
2022-11-05T05:27:50.021Z,95690.38
2022-11-05T05:30:17.703Z,95693.63
2022-11-05T05:32:44.983Z,95707.00
2022-11-05T05:35:12.340Z,95705.19
2022-11-05T05:37:39.653Z,95705.09
2022-11-05T05:40:07.469Z,95698.50
2022-11-05T05:42:40.198Z,95699.22
2022-11-05T05:45:10.419Z,95703.06
2022-11-05T05:47:37.595Z,95714.63
2022-11-05T05:50:05.272Z,95719.84
2022-11-05T05:52:32.463Z,95712.91
2022-11-05T05:54:59.742Z,95730.13
2022-11-05T05:57:26.939Z,95742.47
2022-11-05T05:59:54.179Z,95731.66
2022-11-05T06:02:21.459Z,95745.41
2022-11-05T06:04:48.736Z,95742.81
2022-11-05T06:07:16.027Z,95734.59
2022-11-05T06:09:43.259Z,95726.84
2022-11-05T06:12:10.458Z,95727.19
2022-11-05T06:14:37.741Z,95735.47
2022-11-05T06:17:06.905Z,95730.88
2022-11-05T06:19:34.176Z,95746.06
2022-11-05T06:22:01.381Z,95741.41
2022-11-05T06:24:28.624Z,95750.66
2022-11-05T06:26:55.672Z,95760.28
2022-11-05T06:29:22.951Z,95754.69
2022-11-05T06:31:50.176Z,95747.41
2022-11-05T06:34:17.343Z,95752.63
2022-11-05T06:36:44.506Z,95757.41
2022-11-05T06:39:12.816Z,95761.25
2022-11-05T06:42:03.844Z,95762.28
2022-11-05T06:44:27.095Z,95765.94
2022-11-05T06:46:54.254Z,95764.19
2022-11-05T06:49:24.854Z,95773.91
2022-11-05T06:51:52.872Z,95783.97
2022-11-05T06:54:20.216Z,95790.63
2022-11-05T06:56:47.418Z,95780.19
2022-11-05T06:59:14.653Z,95791.28
2022-11-05T07:01:42.052Z,95800.38
2022-11-05T07:04:11.854Z,95814.84
2022-11-05T07:06:38.937Z,95806.56
2022-11-05T07:09:06.173Z,95813.03
2022-11-05T07:11:50.701Z,95820.22
2022-11-05T07:14:17.899Z,95810.72
2022-11-05T07:16:45.535Z,95813.88
2022-11-05T07:19:12.745Z,95814.50
2022-11-05T07:21:39.970Z,95804.69
2022-11-05T07:24:07.776Z,95802.94
2022-11-05T07:26:34.953Z,95809.06
2022-11-05T07:29:02.155Z,95803.09
2022-11-05T07:31:29.296Z,95809.56
2022-11-05T07:33:56.495Z,95799.78
2022-11-05T07:36:23.699Z,95787.63
2022-11-05T07:38:52.274Z,95796.63
2022-11-05T07:41:21.103Z,95795.78
2022-11-05T07:43:48.534Z,95791.19
2022-11-05T07:46:15.616Z,95793.97
2022-11-05T07:48:42.796Z,95796.19
2022-11-05T07:51:10.103Z,95808.69
2022-11-05T07:53:39.803Z,95806.69
2022-11-05T07:56:12.494Z,95816.25
2022-11-05T07:58:39.654Z,95811.13
2022-11-05T08:01:07.681Z,95810.38
2022-11-05T08:03:35.208Z,95815.94
2022-11-05T08:06:02.654Z,95828.34
2022-11-05T08:08:29.709Z,95820.84
2022-11-05T08:11:07.136Z,95825.88
2022-11-05T08:13:34.661Z,95824.38
2022-11-05T08:16:02.335Z,95814.72
2022-11-05T08:18:34.279Z,95817.63
2022-11-05T08:21:03.695Z,95812.41
2022-11-05T08:23:32.218Z,95817.41
2022-11-05T08:25:59.536Z,95822.69
2022-11-05T08:28:26.935Z,95819.31
2022-11-05T08:30:57.616Z,95822.78
2022-11-05T08:33:26.097Z,95824.63
2022-11-05T08:35:53.293Z,95825.09
2022-11-05T08:38:20.742Z,95814.91
2022-11-05T08:40:55.302Z,95813.88
2022-11-05T08:43:22.822Z,95823.88
2022-11-05T08:45:50.215Z,95822.03
2022-11-05T08:48:19.473Z,95827.00
2022-11-05T08:50:48.505Z,95824.41
2022-11-05T08:53:16.219Z,95809.72
2022-11-05T08:55:44.341Z,95826.25
2022-11-05T08:58:15.694Z,95829.38
2022-11-05T09:00:45.802Z,95828.34
2022-11-05T09:03:13.338Z,95821.56
2022-11-05T09:05:42.214Z,95815.16
2022-11-05T09:08:12.458Z,95812.03
2022-11-05T09:10:40.701Z,95806.56
2022-11-05T09:13:13.093Z,95807.34
2022-11-05T09:15:44.214Z,95822.06
2022-11-05T09:18:14.294Z,95837.53
2022-11-05T09:20:41.613Z,95834.13
2022-11-05T09:23:09.654Z,95824.94
2022-11-05T09:25:37.301Z,95826.56
2022-11-05T09:28:16.149Z,95847.31
2022-11-05T09:30:47.059Z,95841.81
2022-11-05T09:33:15.063Z,95862.56
2022-11-05T09:35:42.822Z,95858.88
2022-11-05T09:38:10.424Z,95865.50
2022-11-05T09:41:00.016Z,95863.06
2022-11-05T09:43:51.021Z,95863.66
2022-11-05T09:46:25.213Z,95862.91
2022-11-05T09:49:05.701Z,95859.75
2022-11-05T09:51:34.774Z,95856.88
2022-11-05T09:54:02.680Z,95863.72
2022-11-05T09:56:40.613Z,95849.22
2022-11-05T09:59:19.339Z,95849.00
2022-11-05T10:01:47.590Z,95851.09
2022-11-05T10:04:22.695Z,95843.72
2022-11-05T10:06:57.162Z,95841.91
2022-11-05T10:09:32.694Z,95850.09
2022-11-05T10:12:17.373Z,95848.50
2022-11-05T10:14:53.573Z,95846.09
2022-11-05T10:17:26.933Z,95850.31
2022-11-05T10:20:16.294Z,95847.72
2022-11-05T10:22:48.284Z,95851.38
2022-11-05T10:25:21.838Z,95860.06
2022-11-05T10:27:54.895Z,95863.22
2022-11-05T10:30:22.827Z,95863.47
2022-11-05T10:32:55.413Z,95862.44
2022-11-05T10:35:25.014Z,95876.66
2022-11-05T10:37:53.935Z,95870.53
2022-11-05T10:40:44.335Z,95872.97
2022-11-05T10:43:29.790Z,95875.34
2022-11-05T10:46:18.415Z,95863.25
2022-11-05T10:49:00.455Z,95868.50
2022-11-05T10:51:28.534Z,95857.69
2022-11-05T10:54:05.653Z,95863.47
2022-11-05T10:56:37.494Z,95873.16
2022-11-05T10:59:12.009Z,95880.84
2022-11-05T11:01:39.908Z,95880.00
2022-11-05T11:04:22.583Z,95889.75
2022-11-05T11:06:54.301Z,95882.44
2022-11-05T11:09:25.134Z,95888.72
2022-11-05T11:12:14.946Z,95900.03
2022-11-05T11:14:42.137Z,95902.88
2022-11-05T11:17:30.223Z,95899.75
2022-11-05T11:20:31.506Z,95908.44
2022-11-05T11:23:15.282Z,95907.09
2022-11-05T11:25:48.382Z,95905.81
2022-11-05T11:28:22.615Z,95904.47
2022-11-05T11:31:02.484Z,95917.34
2022-11-05T11:33:31.934Z,95912.66
2022-11-05T11:36:00.417Z,95915.28
2022-11-05T11:38:31.857Z,95905.03
2022-11-05T11:41:31.215Z,95906.31
2022-11-05T11:44:05.135Z,95908.69
2022-11-05T11:46:34.735Z,95914.22
2022-11-05T11:49:02.144Z,95933.19
2022-11-05T11:51:40.888Z,95919.25
2022-11-05T11:54:24.814Z,95918.19
2022-11-05T11:56:54.416Z,95923.91
2022-11-05T12:00:01.863Z,95933.13
2022-11-05T12:13:21.975Z,95938.25
2022-11-05T12:16:03.981Z,95936.88
2022-11-05T12:18:55.776Z,95942.91
2022-11-05T12:21:51.312Z,95936.91
2022-11-05T12:24:37.857Z,95924.91
2022-11-05T12:27:39.134Z,95944.16
2022-11-05T12:30:18.902Z,95937.38
2022-11-05T12:33:04.904Z,95933.47
2022-11-05T12:35:57.639Z,95938.44
2022-11-05T12:38:55.897Z,95938.69
2022-11-05T12:41:32.014Z,95920.53
2022-11-05T12:44:23.454Z,95916.56
2022-11-05T12:47:19.354Z,95915.72
2022-11-05T12:50:04.943Z,95909.34
2022-11-05T12:52:34.943Z,95913.28
2022-11-05T12:55:24.294Z,95926.13
2022-11-05T12:57:59.316Z,95924.97
2022-11-05T13:00:29.538Z,95926.59
2022-11-05T13:03:15.299Z,95941.38
2022-11-05T13:05:49.239Z,95946.50
2022-11-05T13:08:36.655Z,95944.41
2022-11-05T13:11:20.454Z,95951.22
2022-11-05T13:14:13.783Z,95944.94
2022-11-05T13:16:46.774Z,95955.50
2022-11-05T13:19:23.134Z,95964.41
2022-11-05T13:21:57.014Z,95964.88
2022-11-05T13:24:40.224Z,95973.44
2022-11-05T13:27:52.225Z,95987.75
2022-11-05T13:30:26.070Z,95994.69
2022-11-05T13:33:09.016Z,95999.19
2022-11-05T13:35:46.543Z,95995.78
2022-11-05T13:38:43.621Z,95997.91
2022-11-05T13:41:48.536Z,95993.19
2022-11-05T13:44:36.897Z,95992.66
2022-11-05T13:47:28.136Z,96001.84
2022-11-05T13:50:16.736Z,96007.91
2022-11-05T13:53:00.380Z,96001.59
2022-11-05T13:55:54.573Z,95996.84
2022-11-05T13:58:49.343Z,95996.34
2022-11-05T14:01:30.676Z,95995.03
2022-11-05T14:03:58.142Z,95993.97
2022-11-05T14:06:36.098Z,95978.16
2022-11-05T14:09:09.094Z,95991.09
2022-11-05T14:11:40.936Z,95995.81
2022-11-05T14:14:17.976Z,95986.31
2022-11-05T14:17:14.814Z,95989.75
2022-11-05T14:20:04.704Z,95984.72
2022-11-05T14:22:31.871Z,96000.25
2022-11-05T14:25:23.254Z,95993.16
2022-11-05T14:27:53.055Z,96003.16
2022-11-05T14:30:46.470Z,96001.31
2022-11-05T14:33:32.373Z,96001.81
2022-11-05T14:36:30.734Z,96021.00
2022-11-05T14:39:25.026Z,96017.84
2022-11-05T14:41:53.334Z,96028.31
2022-11-05T14:44:20.585Z,96029.63
2022-11-05T14:46:51.334Z,96028.81
2022-11-05T14:49:26.378Z,96035.59
2022-11-05T14:51:56.790Z,96039.59
2022-11-05T14:54:44.061Z,96050.59
2022-11-05T14:57:35.334Z,96036.91
2022-11-05T15:00:02.976Z,96051.63
2022-11-05T15:02:39.328Z,96057.38
2022-11-05T15:05:31.259Z,96059.75
2022-11-05T15:07:59.693Z,96062.66
2022-11-05T15:10:35.094Z,96069.72
2022-11-05T15:13:06.655Z,96058.88
2022-11-05T15:15:43.973Z,96070.66
2022-11-05T15:18:39.134Z,96070.81
2022-11-05T15:21:10.934Z,96071.03
2022-11-05T15:23:44.694Z,96073.66
2022-11-05T15:26:38.536Z,96072.34
2022-11-05T15:29:20.094Z,96073.25
2022-11-05T15:31:47.614Z,96068.47
2022-11-05T15:34:23.014Z,96072.63
2022-11-05T15:36:56.823Z,96072.28
2022-11-05T15:39:32.267Z,96068.00
2022-11-05T15:42:04.973Z,96072.59
2022-11-05T15:44:38.333Z,96063.66
2022-11-05T15:47:14.654Z,96056.66
2022-11-05T15:49:44.944Z,96055.53
2022-11-05T15:52:14.417Z,96049.78
2022-11-05T15:54:42.582Z,96055.41
2022-11-05T15:57:19.624Z,96064.88
2022-11-05T15:59:47.936Z,96067.25
2022-11-05T16:02:32.169Z,96058.34
2022-11-05T16:05:01.782Z,96061.84
2022-11-05T16:07:29.375Z,96062.94
2022-11-05T16:10:00.214Z,96063.53
2022-11-05T16:12:34.313Z,96077.84
2022-11-05T16:15:10.739Z,96079.03
2022-11-05T16:17:57.902Z,96077.84
2022-11-05T16:20:36.214Z,96086.66
2022-11-05T16:23:07.420Z,96087.88
2022-11-05T16:25:40.701Z,96089.03
2022-11-05T16:28:20.424Z,96091.53
2022-11-05T16:31:05.335Z,96093.09
2022-11-05T16:33:46.493Z,96113.56
2022-11-05T16:36:14.059Z,96110.41
2022-11-05T16:38:41.296Z,96117.72
2022-11-05T16:41:20.865Z,96119.72
2022-11-05T16:43:54.014Z,96126.25
2022-11-05T16:46:21.858Z,96127.81
2022-11-05T16:48:49.136Z,96135.41
2022-11-05T16:51:16.977Z,96137.22
2022-11-05T16:53:44.457Z,96134.50
2022-11-05T16:56:20.334Z,96145.06
2022-11-05T16:58:49.135Z,96139.94
2022-11-05T17:01:22.103Z,96144.19
2022-11-05T17:03:51.255Z,96152.16
2022-11-05T17:06:19.815Z,96158.41
2022-11-05T17:08:48.334Z,96163.66
2022-11-05T17:11:21.937Z,96158.88
2022-11-05T17:13:49.656Z,96158.09
2022-11-05T17:16:18.345Z,96152.50
2022-11-05T17:18:45.661Z,96152.00
2022-11-05T17:21:14.457Z,96156.66
2022-11-05T17:23:41.781Z,96165.25
2022-11-05T17:26:11.464Z,96165.25
2022-11-05T17:28:40.786Z,96162.56
2022-11-05T17:31:11.374Z,96173.75
2022-11-05T17:33:38.777Z,96171.31
2022-11-05T17:36:08.145Z,96176.53
2022-11-05T17:38:35.743Z,96181.53
2022-11-05T17:41:09.896Z,96179.66
2022-11-05T17:43:37.136Z,96192.16
2022-11-05T17:46:09.137Z,96183.19
2022-11-05T17:48:37.627Z,96191.44
2022-11-05T17:51:06.063Z,96191.34
2022-11-05T17:53:33.662Z,96208.06
2022-11-05T17:56:00.952Z,96208.00
2022-11-05T17:58:29.270Z,96212.66
2022-11-05T18:00:56.502Z,96207.91
2022-11-05T18:03:23.816Z,96204.81
2022-11-05T18:05:50.942Z,96207.69
2022-11-05T18:08:18.136Z,96213.72
2022-11-05T18:10:45.419Z,96211.00
2022-11-05T18:13:13.559Z,96217.03
2022-11-05T18:15:41.623Z,96219.78
2022-11-05T18:18:09.658Z,96225.03
2022-11-05T18:20:36.975Z,96218.63
2022-11-05T18:23:04.176Z,96217.53
2022-11-05T18:25:31.418Z,96229.19
2022-11-05T18:27:58.698Z,96229.84
2022-11-05T18:30:25.894Z,96230.97
2022-11-05T18:32:53.257Z,96235.41
2022-11-05T18:35:20.416Z,96232.78
2022-11-05T18:37:47.657Z,96236.56
2022-11-05T18:40:14.975Z,96237.00
2022-11-05T18:42:42.336Z,96244.84
2022-11-05T18:45:10.815Z,96235.63
2022-11-05T18:47:38.542Z,96239.03
2022-11-05T18:50:07.354Z,96241.66
2022-11-05T18:52:34.694Z,96242.13
2022-11-05T18:55:02.227Z,96245.78
2022-11-05T18:57:29.534Z,96252.59
2022-11-05T18:59:56.591Z,96254.09
2022-11-05T19:02:23.906Z,96257.97
2022-11-05T19:05:21.961Z,96256.13
2022-11-05T19:07:39.154Z,96261.50
2022-11-05T19:10:07.103Z,96261.50
2022-11-05T19:12:34.256Z,96275.19
2022-11-05T19:15:02.956Z,96268.84
2022-11-05T19:17:32.934Z,96273.63
2022-11-05T19:20:00.643Z,96280.91
2022-11-05T19:22:28.335Z,96283.78
2022-11-05T19:24:55.536Z,96278.88
2022-11-05T19:27:23.575Z,96290.00
2022-11-05T19:29:50.857Z,96282.19
2022-11-05T19:32:18.468Z,96288.22
2022-11-05T19:34:45.614Z,96286.41
2022-11-05T19:37:13.096Z,96294.25
2022-11-05T19:39:41.505Z,96293.47
2022-11-05T19:42:10.064Z,96300.03
2022-11-05T19:44:37.302Z,96301.63
2022-11-05T19:47:04.574Z,96308.25
2022-11-05T19:49:31.704Z,96306.66
2022-11-05T19:51:59.136Z,96307.09
2022-11-05T19:54:26.375Z,96308.22
2022-11-05T19:56:53.658Z,96303.69
2022-11-05T19:59:20.823Z,96313.09
2022-11-05T20:01:48.217Z,96308.00
2022-11-05T20:04:15.542Z,96307.09
2022-11-05T20:06:42.895Z,96307.31
2022-11-05T20:09:22.670Z,96316.97
2022-11-05T20:11:52.754Z,96304.91
2022-11-05T20:14:20.500Z,96309.91
2022-11-05T20:16:47.825Z,96317.53
2022-11-05T20:19:18.536Z,96318.34
2022-11-05T20:21:45.816Z,96317.44
2022-11-05T20:24:18.736Z,96309.34
2022-11-05T20:26:49.232Z,96313.69
2022-11-05T20:29:17.535Z,96304.69
2022-11-05T20:31:45.458Z,96310.84
2022-11-05T20:34:13.414Z,96317.78
2022-11-05T20:36:41.657Z,96319.13
2022-11-05T20:39:10.138Z,96329.50
2022-11-05T20:41:37.466Z,96328.44
2022-11-05T20:44:04.943Z,96332.09
2022-11-05T20:46:33.313Z,96330.38
2022-11-05T20:49:00.382Z,96327.22
2022-11-05T20:51:27.707Z,96329.81
2022-11-05T20:54:00.337Z,96328.13
2022-11-05T20:56:30.984Z,96325.50
2022-11-05T20:58:59.994Z,96326.97
2022-11-05T21:01:30.693Z,96327.88
2022-11-05T21:04:02.575Z,96333.44
2022-11-05T21:06:30.748Z,96330.94
2022-11-05T21:08:58.374Z,96324.56
2022-11-05T21:11:25.575Z,96331.50
2022-11-05T21:13:52.936Z,96330.19
2022-11-05T21:16:20.820Z,96334.88
2022-11-05T21:18:48.334Z,96334.88
2022-11-05T21:21:20.709Z,96347.56
2022-11-05T21:23:48.462Z,96333.81
2022-11-05T21:26:18.068Z,96337.59
2022-11-05T21:28:45.457Z,96334.81
2022-11-05T21:31:12.668Z,96342.13
2022-11-05T21:33:40.054Z,96336.09
2022-11-05T21:36:12.595Z,96333.69
2022-11-05T21:38:40.781Z,96333.34
2022-11-05T21:41:08.687Z,96335.41
2022-11-05T21:43:36.014Z,96333.22
2022-11-05T21:46:04.656Z,96330.03
2022-11-05T21:48:32.543Z,96331.22
2022-11-05T21:51:18.747Z,96334.22
2022-11-05T21:54:05.576Z,96333.84
2022-11-05T21:56:52.700Z,96330.09
2022-11-05T21:59:42.536Z,96345.06
2022-11-05T22:02:12.700Z,96330.19
2022-11-05T22:04:42.376Z,96331.19
2022-11-05T22:07:12.178Z,96331.06
2022-11-05T22:09:39.703Z,96339.13
2022-11-05T22:12:07.785Z,96339.34
2022-11-05T22:14:35.536Z,96339.56
2022-11-05T22:17:02.657Z,96337.94
2022-11-05T22:19:31.016Z,96340.44
2022-11-05T22:21:57.933Z,96336.91
2022-11-05T22:24:25.654Z,96338.94
2022-11-05T22:26:52.774Z,96332.78
2022-11-05T22:29:20.257Z,96335.09
2022-11-05T22:31:47.577Z,96338.66
2022-11-05T22:34:14.773Z,96341.69
2022-11-05T22:36:42.099Z,96336.13
2022-11-05T22:39:11.097Z,96342.44
2022-11-05T22:41:38.611Z,96341.78
2022-11-05T22:44:06.141Z,96345.25
2022-11-05T22:46:34.020Z,96339.25
2022-11-05T22:49:01.420Z,96342.34
2022-11-05T22:51:31.440Z,96333.78
2022-11-05T22:53:59.578Z,96335.59
2022-11-05T22:56:29.934Z,96333.06
2022-11-05T22:58:57.779Z,96335.81
2022-11-05T23:01:25.962Z,96330.44
2022-11-05T23:03:55.337Z,96338.84
2022-11-05T23:06:42.382Z,96332.25
2022-11-05T23:09:40.335Z,96339.06
2022-11-05T23:12:18.983Z,96338.25
2022-11-05T23:14:46.335Z,96346.00
2022-11-05T23:17:32.175Z,96336.34
2022-11-05T23:20:17.654Z,96344.09
2022-11-05T23:23:03.382Z,96337.13
2022-11-05T23:25:30.856Z,96342.75
2022-11-05T23:27:58.138Z,96334.09
2022-11-05T23:30:27.594Z,96336.44
2022-11-05T23:32:56.256Z,96336.38
2022-11-05T23:35:43.837Z,96341.75
2022-11-05T23:38:43.415Z,96343.28
2022-11-05T23:41:29.095Z,96339.25
2022-11-05T23:44:14.538Z,96342.78
2022-11-05T23:47:00.336Z,96335.13
2022-11-05T23:49:27.616Z,96340.72
2022-11-05T23:51:54.779Z,96343.53
2022-11-05T23:54:22.783Z,96342.88
2022-11-05T23:56:49.900Z,96345.44
2022-11-05T23:59:17.136Z,96345.34
